sensor_id;sensor_type;location;lat;lon;timestamp;P1;durP1;ratioP1;P2;durP2;ratioP2
7657;SDS011;8462;53.156;8.220;2024-02-15T00:02:00;20.93;;;12.37;;
7657;SDS011;8462;53.156;8.220;2024-02-15T00:04:32;18.30;;;12.27;;
7657;SDS011;8462;53.156;8.220;2024-02-15T00:06:59;17.13;;;13.20;;
7657;SDS011;8462;53.156;8.220;2024-02-15T00:09:27;17.40;;;12.63;;
7657;SDS011;8462;53.156;8.220;2024-02-15T00:11:57;18.97;;;13.73;;
7657;SDS011;8462;53.156;8.220;2024-02-15T00:14:26;19.03;;;14.17;;
7657;SDS011;8462;53.156;8.220;2024-02-15T00:16:55;21.90;;;14.97;;
7657;SDS011;8462;53.156;8.220;2024-02-15T00:19:24;22.90;;;14.83;;
7657;SDS011;8462;53.156;8.220;2024-02-15T00:21:53;18.37;;;14.30;;
7657;SDS011;8462;53.156;8.220;2024-02-15T00:24:21;19.90;;;14.93;;
7657;SDS011;8462;53.156;8.220;2024-02-15T00:26:51;22.93;;;15.43;;
7657;SDS011;8462;53.156;8.220;2024-02-15T00:29:20;21.40;;;16.27;;
7657;SDS011;8462;53.156;8.220;2024-02-15T00:31:47;20.27;;;15.70;;
7657;SDS011;8462;53.156;8.220;2024-02-15T00:34:16;24.77;;;16.80;;
7657;SDS011;8462;53.156;8.220;2024-02-15T00:36:44;20.63;;;15.20;;
7657;SDS011;8462;53.156;8.220;2024-02-15T00:39:14;19.93;;;15.27;;
7657;SDS011;8462;53.156;8.220;2024-02-15T00:41:45;22.00;;;15.60;;
7657;SDS011;8462;53.156;8.220;2024-02-15T00:44:14;21.93;;;16.03;;
7657;SDS011;8462;53.156;8.220;2024-02-15T00:46:46;22.17;;;16.37;;
7657;SDS011;8462;53.156;8.220;2024-02-15T00:49:13;20.13;;;15.33;;
7657;SDS011;8462;53.156;8.220;2024-02-15T00:51:41;24.70;;;17.00;;
7657;SDS011;8462;53.156;8.220;2024-02-15T00:54:16;21.23;;;16.00;;
7657;SDS011;8462;53.156;8.220;2024-02-15T00:56:44;20.97;;;15.60;;
7657;SDS011;8462;53.156;8.220;2024-02-15T00:59:11;24.50;;;17.73;;
7657;SDS011;8462;53.156;8.220;2024-02-15T01:01:39;21.87;;;15.63;;
7657;SDS011;8462;53.156;8.220;2024-02-15T01:04:06;23.63;;;15.93;;
7657;SDS011;8462;53.156;8.220;2024-02-15T01:06:34;22.00;;;15.40;;
7657;SDS011;8462;53.156;8.220;2024-02-15T01:09:04;22.60;;;16.00;;
7657;SDS011;8462;53.156;8.220;2024-02-15T01:11:38;23.13;;;15.73;;
7657;SDS011;8462;53.156;8.220;2024-02-15T01:14:05;20.33;;;14.43;;
7657;SDS011;8462;53.156;8.220;2024-02-15T01:16:36;20.07;;;14.60;;
7657;SDS011;8462;53.156;8.220;2024-02-15T01:19:03;19.83;;;14.40;;
7657;SDS011;8462;53.156;8.220;2024-02-15T01:21:31;18.23;;;14.43;;
7657;SDS011;8462;53.156;8.220;2024-02-15T01:24:00;22.90;;;15.73;;
7657;SDS011;8462;53.156;8.220;2024-02-15T01:26:27;23.07;;;15.80;;
7657;SDS011;8462;53.156;8.220;2024-02-15T01:28:57;22.37;;;15.90;;
7657;SDS011;8462;53.156;8.220;2024-02-15T01:31:24;20.37;;;14.97;;
7657;SDS011;8462;53.156;8.220;2024-02-15T01:33:58;22.07;;;15.57;;
7657;SDS011;8462;53.156;8.220;2024-02-15T01:36:26;22.97;;;16.13;;
7657;SDS011;8462;53.156;8.220;2024-02-15T01:38:54;24.87;;;16.27;;
7657;SDS011;8462;53.156;8.220;2024-02-15T01:41:21;20.70;;;15.80;;
7657;SDS011;8462;53.156;8.220;2024-02-15T01:43:48;22.10;;;15.67;;
7657;SDS011;8462;53.156;8.220;2024-02-15T01:46:18;23.87;;;16.37;;
7657;SDS011;8462;53.156;8.220;2024-02-15T01:48:50;25.17;;;17.53;;
7657;SDS011;8462;53.156;8.220;2024-02-15T01:51:21;24.73;;;17.23;;
7657;SDS011;8462;53.156;8.220;2024-02-15T01:53:51;24.83;;;17.53;;
7657;SDS011;8462;53.156;8.220;2024-02-15T01:56:22;27.90;;;18.27;;
7657;SDS011;8462;53.156;8.220;2024-02-15T01:58:51;25.20;;;17.90;;
7657;SDS011;8462;53.156;8.220;2024-02-15T02:01:21;27.93;;;18.23;;
7657;SDS011;8462;53.156;8.220;2024-02-15T02:03:51;25.50;;;17.27;;
7657;SDS011;8462;53.156;8.220;2024-02-15T02:06:18;27.07;;;17.77;;
7657;SDS011;8462;53.156;8.220;2024-02-15T02:08:46;27.17;;;18.37;;
7657;SDS011;8462;53.156;8.220;2024-02-15T02:11:15;25.33;;;17.20;;
7657;SDS011;8462;53.156;8.220;2024-02-15T02:13:43;23.73;;;17.00;;
7657;SDS011;8462;53.156;8.220;2024-02-15T02:16:30;29.00;;;17.80;;
7657;SDS011;8462;53.156;8.220;2024-02-15T02:18:58;27.53;;;18.13;;
7657;SDS011;8462;53.156;8.220;2024-02-15T02:21:32;23.70;;;16.93;;
7657;SDS011;8462;53.156;8.220;2024-02-15T02:24:03;28.00;;;17.47;;
7657;SDS011;8462;53.156;8.220;2024-02-15T02:26:37;25.53;;;18.20;;
7657;SDS011;8462;53.156;8.220;2024-02-15T02:29:07;28.73;;;17.63;;
7657;SDS011;8462;53.156;8.220;2024-02-15T02:31:36;26.93;;;17.33;;
7657;SDS011;8462;53.156;8.220;2024-02-15T02:34:05;27.77;;;18.90;;
7657;SDS011;8462;53.156;8.220;2024-02-15T02:36:33;26.63;;;17.70;;
7657;SDS011;8462;53.156;8.220;2024-02-15T02:39:00;26.80;;;16.90;;
7657;SDS011;8462;53.156;8.220;2024-02-15T02:41:28;24.50;;;16.50;;
7657;SDS011;8462;53.156;8.220;2024-02-15T02:43:57;25.43;;;17.10;;
7657;SDS011;8462;53.156;8.220;2024-02-15T02:46:26;24.80;;;16.17;;
7657;SDS011;8462;53.156;8.220;2024-02-15T02:48:54;26.47;;;16.47;;
7657;SDS011;8462;53.156;8.220;2024-02-15T02:51:22;25.33;;;16.07;;
7657;SDS011;8462;53.156;8.220;2024-02-15T02:53:49;23.40;;;15.23;;
7657;SDS011;8462;53.156;8.220;2024-02-15T02:56:19;23.23;;;15.23;;
7657;SDS011;8462;53.156;8.220;2024-02-15T02:58:46;22.20;;;16.20;;
7657;SDS011;8462;53.156;8.220;2024-02-15T03:05:01;19.77;;;13.83;;
7657;SDS011;8462;53.156;8.220;2024-02-15T03:07:32;18.20;;;13.07;;
7657;SDS011;8462;53.156;8.220;2024-02-15T03:10:01;22.63;;;14.07;;
7657;SDS011;8462;53.156;8.220;2024-02-15T03:12:30;23.50;;;14.27;;
7657;SDS011;8462;53.156;8.220;2024-02-15T03:15:03;19.60;;;14.23;;
7657;SDS011;8462;53.156;8.220;2024-02-15T03:17:31;18.63;;;13.53;;
7657;SDS011;8462;53.156;8.220;2024-02-15T03:20:07;19.13;;;13.70;;
7657;SDS011;8462;53.156;8.220;2024-02-15T03:22:38;18.67;;;13.03;;
7657;SDS011;8462;53.156;8.220;2024-02-15T03:25:06;18.20;;;13.27;;
7657;SDS011;8462;53.156;8.220;2024-02-15T03:27:35;20.93;;;14.53;;
7657;SDS011;8462;53.156;8.220;2024-02-15T03:30:03;20.07;;;13.97;;
7657;SDS011;8462;53.156;8.220;2024-02-15T03:32:32;22.23;;;13.87;;
7657;SDS011;8462;53.156;8.220;2024-02-15T03:35:00;20.30;;;14.00;;
7657;SDS011;8462;53.156;8.220;2024-02-15T03:37:31;18.93;;;12.83;;
7657;SDS011;8462;53.156;8.220;2024-02-15T03:40:02;17.67;;;13.63;;
7657;SDS011;8462;53.156;8.220;2024-02-15T03:42:54;18.83;;;12.77;;
7657;SDS011;8462;53.156;8.220;2024-02-15T03:45:26;18.87;;;13.63;;
7657;SDS011;8462;53.156;8.220;2024-02-15T03:47:55;18.13;;;13.80;;
7657;SDS011;8462;53.156;8.220;2024-02-15T03:50:25;17.90;;;12.37;;
7657;SDS011;8462;53.156;8.220;2024-02-15T03:52:57;17.53;;;11.63;;
7657;SDS011;8462;53.156;8.220;2024-02-15T03:55:26;14.77;;;11.07;;
7657;SDS011;8462;53.156;8.220;2024-02-15T03:57:54;17.67;;;10.90;;
7657;SDS011;8462;53.156;8.220;2024-02-15T04:00:30;18.13;;;11.83;;
7657;SDS011;8462;53.156;8.220;2024-02-15T04:02:57;17.97;;;11.10;;
7657;SDS011;8462;53.156;8.220;2024-02-15T04:05:31;18.80;;;11.10;;
7657;SDS011;8462;53.156;8.220;2024-02-15T04:08:03;19.67;;;10.90;;
7657;SDS011;8462;53.156;8.220;2024-02-15T04:10:32;19.17;;;11.90;;
7657;SDS011;8462;53.156;8.220;2024-02-15T04:12:59;16.37;;;11.70;;
7657;SDS011;8462;53.156;8.220;2024-02-15T04:15:26;20.80;;;12.07;;
7657;SDS011;8462;53.156;8.220;2024-02-15T04:17:54;17.40;;;10.87;;
7657;SDS011;8462;53.156;8.220;2024-02-15T04:20:23;18.93;;;10.70;;
7657;SDS011;8462;53.156;8.220;2024-02-15T04:22:52;20.37;;;11.70;;
7657;SDS011;8462;53.156;8.220;2024-02-15T04:25:24;16.30;;;11.83;;
7657;SDS011;8462;53.156;8.220;2024-02-15T04:28:00;18.67;;;10.70;;
7657;SDS011;8462;53.156;8.220;2024-02-15T04:30:29;20.80;;;11.40;;
7657;SDS011;8462;53.156;8.220;2024-02-15T04:32:57;16.23;;;10.73;;
7657;SDS011;8462;53.156;8.220;2024-02-15T04:35:26;18.37;;;10.43;;
7657;SDS011;8462;53.156;8.220;2024-02-15T04:37:55;17.33;;;10.60;;
7657;SDS011;8462;53.156;8.220;2024-02-15T04:40:24;18.40;;;11.90;;
7657;SDS011;8462;53.156;8.220;2024-02-15T04:42:51;19.57;;;11.47;;
7657;SDS011;8462;53.156;8.220;2024-02-15T04:45:19;17.87;;;10.87;;
7657;SDS011;8462;53.156;8.220;2024-02-15T04:47:48;18.93;;;12.10;;
7657;SDS011;8462;53.156;8.220;2024-02-15T04:50:21;20.83;;;12.37;;
7657;SDS011;8462;53.156;8.220;2024-02-15T04:52:49;23.67;;;13.10;;
7657;SDS011;8462;53.156;8.220;2024-02-15T04:55:17;26.27;;;13.40;;
7657;SDS011;8462;53.156;8.220;2024-02-15T04:57:48;25.20;;;13.03;;
7657;SDS011;8462;53.156;8.220;2024-02-15T05:00:21;25.30;;;14.03;;
7657;SDS011;8462;53.156;8.220;2024-02-15T05:02:52;23.90;;;13.77;;
7657;SDS011;8462;53.156;8.220;2024-02-15T05:05:20;25.83;;;14.40;;
7657;SDS011;8462;53.156;8.220;2024-02-15T05:07:50;25.33;;;13.83;;
7657;SDS011;8462;53.156;8.220;2024-02-15T05:10:18;23.27;;;13.30;;
7657;SDS011;8462;53.156;8.220;2024-02-15T05:12:47;31.10;;;14.93;;
7657;SDS011;8462;53.156;8.220;2024-02-15T05:15:15;25.07;;;14.20;;
7657;SDS011;8462;53.156;8.220;2024-02-15T05:17:45;26.87;;;15.47;;
7657;SDS011;8462;53.156;8.220;2024-02-15T05:20:15;32.57;;;16.20;;
7657;SDS011;8462;53.156;8.220;2024-02-15T05:22:43;33.50;;;15.77;;
7657;SDS011;8462;53.156;8.220;2024-02-15T05:25:13;26.57;;;14.87;;
7657;SDS011;8462;53.156;8.220;2024-02-15T05:27:43;29.60;;;16.80;;
7657;SDS011;8462;53.156;8.220;2024-02-15T05:30:14;36.80;;;17.40;;
7657;SDS011;8462;53.156;8.220;2024-02-15T05:32:46;32.13;;;16.73;;
7657;SDS011;8462;53.156;8.220;2024-02-15T05:35:17;34.63;;;17.10;;
7657;SDS011;8462;53.156;8.220;2024-02-15T05:37:50;31.23;;;16.40;;
7657;SDS011;8462;53.156;8.220;2024-02-15T05:40:19;35.87;;;17.20;;
7657;SDS011;8462;53.156;8.220;2024-02-15T05:42:46;31.83;;;16.83;;
7657;SDS011;8462;53.156;8.220;2024-02-15T05:45:29;36.07;;;18.00;;
7657;SDS011;8462;53.156;8.220;2024-02-15T05:48:04;32.83;;;18.93;;
7657;SDS011;8462;53.156;8.220;2024-02-15T05:50:38;36.80;;;18.47;;
7657;SDS011;8462;53.156;8.220;2024-02-15T05:53:06;33.10;;;19.00;;
7657;SDS011;8462;53.156;8.220;2024-02-15T05:55:35;34.07;;;18.03;;
7657;SDS011;8462;53.156;8.220;2024-02-15T05:58:05;34.77;;;18.83;;
7657;SDS011;8462;53.156;8.220;2024-02-15T06:00:42;39.43;;;19.13;;
7657;SDS011;8462;53.156;8.220;2024-02-15T06:03:10;32.53;;;18.10;;
7657;SDS011;8462;53.156;8.220;2024-02-15T06:05:40;34.17;;;18.37;;
7657;SDS011;8462;53.156;8.220;2024-02-15T06:08:09;34.33;;;19.30;;
7657;SDS011;8462;53.156;8.220;2024-02-15T06:10:45;34.83;;;18.47;;
7657;SDS011;8462;53.156;8.220;2024-02-15T06:13:13;40.40;;;20.03;;
7657;SDS011;8462;53.156;8.220;2024-02-15T06:15:44;37.20;;;20.13;;
7657;SDS011;8462;53.156;8.220;2024-02-15T06:18:12;44.40;;;22.37;;
7657;SDS011;8462;53.156;8.220;2024-02-15T06:20:44;38.50;;;20.30;;
7657;SDS011;8462;53.156;8.220;2024-02-15T06:23:14;43.43;;;20.07;;
7657;SDS011;8462;53.156;8.220;2024-02-15T06:25:42;41.27;;;21.53;;
7657;SDS011;8462;53.156;8.220;2024-02-15T06:28:12;39.03;;;21.03;;
7657;SDS011;8462;53.156;8.220;2024-02-15T06:30:46;46.23;;;22.07;;
7657;SDS011;8462;53.156;8.220;2024-02-15T06:33:30;40.23;;;21.07;;
7657;SDS011;8462;53.156;8.220;2024-02-15T06:36:31;41.67;;;22.67;;
7657;SDS011;8462;53.156;8.220;2024-02-15T06:39:17;49.40;;;24.67;;
7657;SDS011;8462;53.156;8.220;2024-02-15T06:42:03;43.83;;;24.40;;
7657;SDS011;8462;53.156;8.220;2024-02-15T06:44:33;39.00;;;22.47;;
7657;SDS011;8462;53.156;8.220;2024-02-15T06:47:03;44.47;;;23.93;;
7657;SDS011;8462;53.156;8.220;2024-02-15T06:49:31;39.53;;;21.47;;
7657;SDS011;8462;53.156;8.220;2024-02-15T06:51:59;37.03;;;21.87;;
7657;SDS011;8462;53.156;8.220;2024-02-15T06:54:30;38.73;;;23.47;;
7657;SDS011;8462;53.156;8.220;2024-02-15T06:56:58;38.13;;;23.10;;
7657;SDS011;8462;53.156;8.220;2024-02-15T06:59:28;42.07;;;23.20;;
7657;SDS011;8462;53.156;8.220;2024-02-15T07:01:56;38.73;;;22.93;;
7657;SDS011;8462;53.156;8.220;2024-02-15T07:04:26;38.97;;;22.47;;
7657;SDS011;8462;53.156;8.220;2024-02-15T07:06:55;36.30;;;21.47;;
7657;SDS011;8462;53.156;8.220;2024-02-15T07:09:23;39.07;;;22.73;;
7657;SDS011;8462;53.156;8.220;2024-02-15T07:11:51;40.87;;;23.97;;
7657;SDS011;8462;53.156;8.220;2024-02-15T07:14:25;33.90;;;21.17;;
7657;SDS011;8462;53.156;8.220;2024-02-15T07:16:53;35.57;;;21.87;;
7657;SDS011;8462;53.156;8.220;2024-02-15T07:19:22;35.33;;;22.27;;
7657;SDS011;8462;53.156;8.220;2024-02-15T07:21:50;33.47;;;21.57;;
7657;SDS011;8462;53.156;8.220;2024-02-15T07:24:19;31.30;;;20.63;;
7657;SDS011;8462;53.156;8.220;2024-02-15T07:26:45;30.93;;;20.50;;
7657;SDS011;8462;53.156;8.220;2024-02-15T07:29:13;29.50;;;19.87;;
7657;SDS011;8462;53.156;8.220;2024-02-15T07:31:40;35.20;;;21.83;;
7657;SDS011;8462;53.156;8.220;2024-02-15T07:34:08;30.63;;;21.03;;
7657;SDS011;8462;53.156;8.220;2024-02-15T07:36:37;28.30;;;20.30;;
7657;SDS011;8462;53.156;8.220;2024-02-15T07:39:09;29.53;;;19.60;;
7657;SDS011;8462;53.156;8.220;2024-02-15T07:41:45;34.87;;;20.57;;
7657;SDS011;8462;53.156;8.220;2024-02-15T07:44:13;31.57;;;20.57;;
7657;SDS011;8462;53.156;8.220;2024-02-15T07:46:42;34.27;;;21.07;;
7657;SDS011;8462;53.156;8.220;2024-02-15T07:49:09;26.10;;;19.27;;
7657;SDS011;8462;53.156;8.220;2024-02-15T07:51:37;33.87;;;19.67;;
7657;SDS011;8462;53.156;8.220;2024-02-15T07:54:06;31.20;;;19.97;;
7657;SDS011;8462;53.156;8.220;2024-02-15T07:56:34;29.27;;;19.33;;
7657;SDS011;8462;53.156;8.220;2024-02-15T07:59:02;26.53;;;19.23;;
7657;SDS011;8462;53.156;8.220;2024-02-15T08:01:30;34.27;;;20.83;;
7657;SDS011;8462;53.156;8.220;2024-02-15T08:03:59;28.37;;;19.13;;
7657;SDS011;8462;53.156;8.220;2024-02-15T08:06:30;30.43;;;19.53;;
7657;SDS011;8462;53.156;8.220;2024-02-15T08:09:00;28.47;;;20.20;;
7657;SDS011;8462;53.156;8.220;2024-02-15T08:11:33;30.03;;;19.37;;
7657;SDS011;8462;53.156;8.220;2024-02-15T08:14:01;31.57;;;20.03;;
7657;SDS011;8462;53.156;8.220;2024-02-15T08:16:29;25.97;;;19.67;;
7657;SDS011;8462;53.156;8.220;2024-02-15T08:19:02;26.77;;;18.37;;
7657;SDS011;8462;53.156;8.220;2024-02-15T08:21:31;25.80;;;18.57;;
7657;SDS011;8462;53.156;8.220;2024-02-15T08:24:03;28.67;;;18.93;;
7657;SDS011;8462;53.156;8.220;2024-02-15T08:26:36;27.13;;;17.60;;
7657;SDS011;8462;53.156;8.220;2024-02-15T08:29:05;26.33;;;17.97;;
7657;SDS011;8462;53.156;8.220;2024-02-15T08:31:34;26.20;;;18.30;;
7657;SDS011;8462;53.156;8.220;2024-02-15T08:34:03;28.33;;;18.77;;
7657;SDS011;8462;53.156;8.220;2024-02-15T08:36:35;28.13;;;18.97;;
7657;SDS011;8462;53.156;8.220;2024-02-15T08:39:03;25.50;;;17.10;;
7657;SDS011;8462;53.156;8.220;2024-02-15T08:41:32;25.13;;;16.37;;
7657;SDS011;8462;53.156;8.220;2024-02-15T08:44:01;23.27;;;17.53;;
7657;SDS011;8462;53.156;8.220;2024-02-15T08:46:34;22.20;;;16.73;;
7657;SDS011;8462;53.156;8.220;2024-02-15T08:49:04;24.10;;;16.80;;
7657;SDS011;8462;53.156;8.220;2024-02-15T08:51:31;24.17;;;17.07;;
7657;SDS011;8462;53.156;8.220;2024-02-15T08:54:00;24.63;;;17.53;;
7657;SDS011;8462;53.156;8.220;2024-02-15T08:56:30;22.93;;;15.90;;
7657;SDS011;8462;53.156;8.220;2024-02-15T08:58:59;24.03;;;16.33;;
7657;SDS011;8462;53.156;8.220;2024-02-15T09:01:31;24.67;;;16.67;;
7657;SDS011;8462;53.156;8.220;2024-02-15T09:04:00;25.23;;;16.67;;
7657;SDS011;8462;53.156;8.220;2024-02-15T09:06:29;24.27;;;16.93;;
7657;SDS011;8462;53.156;8.220;2024-02-15T09:08:58;26.13;;;16.07;;
7657;SDS011;8462;53.156;8.220;2024-02-15T09:11:27;26.27;;;17.70;;
7657;SDS011;8462;53.156;8.220;2024-02-15T09:13:56;21.53;;;16.50;;
7657;SDS011;8462;53.156;8.220;2024-02-15T09:16:28;21.67;;;17.07;;
7657;SDS011;8462;53.156;8.220;2024-02-15T09:18:57;27.33;;;16.40;;
7657;SDS011;8462;53.156;8.220;2024-02-15T09:21:27;22.97;;;17.20;;
7657;SDS011;8462;53.156;8.220;2024-02-15T09:23:56;22.67;;;16.87;;
7657;SDS011;8462;53.156;8.220;2024-02-15T09:26:24;27.77;;;17.27;;
7657;SDS011;8462;53.156;8.220;2024-02-15T09:28:53;24.13;;;17.20;;
7657;SDS011;8462;53.156;8.220;2024-02-15T09:31:21;24.00;;;17.27;;
7657;SDS011;8462;53.156;8.220;2024-02-15T09:33:53;24.20;;;17.40;;
7657;SDS011;8462;53.156;8.220;2024-02-15T09:36:21;26.23;;;17.33;;
7657;SDS011;8462;53.156;8.220;2024-02-15T09:38:54;25.33;;;17.90;;
7657;SDS011;8462;53.156;8.220;2024-02-15T09:41:27;23.13;;;16.70;;
7657;SDS011;8462;53.156;8.220;2024-02-15T09:43:54;31.37;;;19.37;;
7657;SDS011;8462;53.156;8.220;2024-02-15T09:46:23;31.10;;;19.50;;
7657;SDS011;8462;53.156;8.220;2024-02-15T09:48:55;25.03;;;19.27;;
7657;SDS011;8462;53.156;8.220;2024-02-15T09:51:27;34.80;;;21.63;;
7657;SDS011;8462;53.156;8.220;2024-02-15T09:53:58;32.57;;;21.17;;
7657;SDS011;8462;53.156;8.220;2024-02-15T09:56:27;32.07;;;21.43;;
7657;SDS011;8462;53.156;8.220;2024-02-15T09:58:59;36.43;;;22.87;;
7657;SDS011;8462;53.156;8.220;2024-02-15T10:01:28;33.03;;;22.33;;
7657;SDS011;8462;53.156;8.220;2024-02-15T10:03:59;35.10;;;22.17;;
7657;SDS011;8462;53.156;8.220;2024-02-15T10:06:32;37.47;;;22.83;;
7657;SDS011;8462;53.156;8.220;2024-02-15T10:11:53;36.43;;;23.80;;
7657;SDS011;8462;53.156;8.220;2024-02-15T10:14:26;31.90;;;21.83;;
7657;SDS011;8462;53.156;8.220;2024-02-15T10:16:56;31.37;;;21.67;;
7657;SDS011;8462;53.156;8.220;2024-02-15T10:19:27;35.93;;;24.10;;
7657;SDS011;8462;53.156;8.220;2024-02-15T10:22:05;25.80;;;20.70;;
7657;SDS011;8462;53.156;8.220;2024-02-15T10:24:34;33.27;;;22.70;;
7657;SDS011;8462;53.156;8.220;2024-02-15T10:27:04;31.53;;;22.10;;
7657;SDS011;8462;53.156;8.220;2024-02-15T10:29:33;31.07;;;22.00;;
7657;SDS011;8462;53.156;8.220;2024-02-15T10:32:00;32.23;;;22.67;;
7657;SDS011;8462;53.156;8.220;2024-02-15T10:34:32;27.73;;;20.77;;
7657;SDS011;8462;53.156;8.220;2024-02-15T10:37:10;26.67;;;20.57;;
7657;SDS011;8462;53.156;8.220;2024-02-15T10:39:39;28.00;;;20.73;;
7657;SDS011;8462;53.156;8.220;2024-02-15T10:42:07;29.07;;;21.83;;
7657;SDS011;8462;53.156;8.220;2024-02-15T10:44:36;28.30;;;21.57;;
7657;SDS011;8462;53.156;8.220;2024-02-15T10:47:07;30.97;;;22.00;;
7657;SDS011;8462;53.156;8.220;2024-02-15T10:49:40;33.87;;;23.03;;
7657;SDS011;8462;53.156;8.220;2024-02-15T10:52:07;31.17;;;21.83;;
7657;SDS011;8462;53.156;8.220;2024-02-15T10:54:42;29.97;;;21.87;;
7657;SDS011;8462;53.156;8.220;2024-02-15T10:57:20;32.50;;;22.07;;
7657;SDS011;8462;53.156;8.220;2024-02-15T10:59:54;31.17;;;23.27;;
7657;SDS011;8462;53.156;8.220;2024-02-15T11:02:27;30.47;;;22.33;;
7657;SDS011;8462;53.156;8.220;2024-02-15T11:05:02;29.57;;;22.50;;
7657;SDS011;8462;53.156;8.220;2024-02-15T11:07:36;27.57;;;20.60;;
7657;SDS011;8462;53.156;8.220;2024-02-15T11:10:05;28.37;;;20.57;;
7657;SDS011;8462;53.156;8.220;2024-02-15T11:12:35;25.30;;;20.20;;
7657;SDS011;8462;53.156;8.220;2024-02-15T11:15:05;23.37;;;17.93;;
7657;SDS011;8462;53.156;8.220;2024-02-15T11:17:47;26.93;;;17.93;;
7657;SDS011;8462;53.156;8.220;2024-02-15T11:23:26;23.03;;;18.07;;
7657;SDS011;8462;53.156;8.220;2024-02-15T11:25:56;26.10;;;17.60;;
7657;SDS011;8462;53.156;8.220;2024-02-15T11:28:39;21.77;;;17.53;;
7657;SDS011;8462;53.156;8.220;2024-02-15T11:31:07;21.13;;;16.67;;
7657;SDS011;8462;53.156;8.220;2024-02-15T11:33:36;19.90;;;15.23;;
7657;SDS011;8462;53.156;8.220;2024-02-15T11:36:07;20.30;;;15.10;;
7657;SDS011;8462;53.156;8.220;2024-02-15T11:38:38;21.13;;;14.10;;
7657;SDS011;8462;53.156;8.220;2024-02-15T11:41:08;17.53;;;13.13;;
7657;SDS011;8462;53.156;8.220;2024-02-15T11:43:47;19.57;;;15.27;;
7657;SDS011;8462;53.156;8.220;2024-02-15T11:46:22;18.53;;;15.83;;
7657;SDS011;8462;53.156;8.220;2024-02-15T11:48:53;15.83;;;13.23;;
7657;SDS011;8462;53.156;8.220;2024-02-15T11:51:27;18.10;;;12.67;;
7657;SDS011;8462;53.156;8.220;2024-02-15T11:53:59;20.33;;;13.67;;
7657;SDS011;8462;53.156;8.220;2024-02-15T11:56:32;14.00;;;11.87;;
7657;SDS011;8462;53.156;8.220;2024-02-15T11:59:17;14.40;;;11.73;;
7657;SDS011;8462;53.156;8.220;2024-02-15T12:01:54;14.50;;;11.57;;
7657;SDS011;8462;53.156;8.220;2024-02-15T12:04:41;13.63;;;11.47;;
7657;SDS011;8462;53.156;8.220;2024-02-15T12:07:28;11.97;;;10.37;;
7657;SDS011;8462;53.156;8.220;2024-02-15T12:10:17;14.47;;;10.33;;
7657;SDS011;8462;53.156;8.220;2024-02-15T12:13:03;16.97;;;11.23;;
7657;SDS011;8462;53.156;8.220;2024-02-15T12:15:57;13.47;;;10.80;;
7657;SDS011;8462;53.156;8.220;2024-02-15T12:18:42;13.03;;;10.43;;
7657;SDS011;8462;53.156;8.220;2024-02-15T12:21:14;11.40;;;10.30;;
7657;SDS011;8462;53.156;8.220;2024-02-15T12:23:48;12.70;;;10.70;;
7657;SDS011;8462;53.156;8.220;2024-02-15T12:26:19;12.17;;;10.87;;
7657;SDS011;8462;53.156;8.220;2024-02-15T12:28:54;12.33;;;10.70;;
7657;SDS011;8462;53.156;8.220;2024-02-15T12:31:24;12.43;;;10.30;;
7657;SDS011;8462;53.156;8.220;2024-02-15T12:34:02;10.93;;;9.90;;
7657;SDS011;8462;53.156;8.220;2024-02-15T12:36:31;12.43;;;11.20;;
7657;SDS011;8462;53.156;8.220;2024-02-15T12:39:02;11.80;;;10.60;;
7657;SDS011;8462;53.156;8.220;2024-02-15T12:41:36;12.07;;;10.90;;
7657;SDS011;8462;53.156;8.220;2024-02-15T12:44:07;12.87;;;11.33;;
7657;SDS011;8462;53.156;8.220;2024-02-15T12:46:36;12.37;;;10.67;;
7657;SDS011;8462;53.156;8.220;2024-02-15T12:49:08;12.23;;;11.00;;
7657;SDS011;8462;53.156;8.220;2024-02-15T12:51:40;13.83;;;10.37;;
7657;SDS011;8462;53.156;8.220;2024-02-15T12:54:20;11.43;;;10.23;;
7657;SDS011;8462;53.156;8.220;2024-02-15T12:56:48;10.47;;;9.47;;
7657;SDS011;8462;53.156;8.220;2024-02-15T12:59:18;11.27;;;10.17;;
7657;SDS011;8462;53.156;8.220;2024-02-15T13:01:53;10.73;;;9.60;;
7657;SDS011;8462;53.156;8.220;2024-02-15T13:04:22;11.37;;;10.17;;
7657;SDS011;8462;53.156;8.220;2024-02-15T13:06:51;10.13;;;9.10;;
7657;SDS011;8462;53.156;8.220;2024-02-15T13:09:20;13.47;;;12.07;;
7657;SDS011;8462;53.156;8.220;2024-02-15T13:11:49;11.07;;;9.63;;
7657;SDS011;8462;53.156;8.220;2024-02-15T13:14:19;12.43;;;10.13;;
7657;SDS011;8462;53.156;8.220;2024-02-15T13:16:47;9.43;;;8.17;;
7657;SDS011;8462;53.156;8.220;2024-02-15T13:19:15;8.10;;;7.40;;
7657;SDS011;8462;53.156;8.220;2024-02-15T13:21:43;9.20;;;7.77;;
7657;SDS011;8462;53.156;8.220;2024-02-15T13:24:12;8.60;;;7.80;;
7657;SDS011;8462;53.156;8.220;2024-02-15T13:26:41;9.53;;;7.47;;
7657;SDS011;8462;53.156;8.220;2024-02-15T13:29:11;7.37;;;6.80;;
7657;SDS011;8462;53.156;8.220;2024-02-15T13:31:38;7.13;;;6.47;;
7657;SDS011;8462;53.156;8.220;2024-02-15T13:34:06;6.60;;;6.10;;
7657;SDS011;8462;53.156;8.220;2024-02-15T13:36:34;7.50;;;6.77;;
7657;SDS011;8462;53.156;8.220;2024-02-15T13:39:03;8.07;;;6.93;;
7657;SDS011;8462;53.156;8.220;2024-02-15T13:41:31;6.00;;;5.50;;
7657;SDS011;8462;53.156;8.220;2024-02-15T13:44:00;6.50;;;5.90;;
7657;SDS011;8462;53.156;8.220;2024-02-15T13:46:27;6.70;;;6.10;;
7657;SDS011;8462;53.156;8.220;2024-02-15T13:48:55;6.53;;;5.93;;
7657;SDS011;8462;53.156;8.220;2024-02-15T13:51:26;6.87;;;5.77;;
7657;SDS011;8462;53.156;8.220;2024-02-15T13:53:54;7.07;;;6.03;;
7657;SDS011;8462;53.156;8.220;2024-02-15T13:56:25;6.00;;;5.40;;
7657;SDS011;8462;53.156;8.220;2024-02-15T13:58:53;6.67;;;5.97;;
7657;SDS011;8462;53.156;8.220;2024-02-15T14:01:23;6.13;;;5.53;;
7657;SDS011;8462;53.156;8.220;2024-02-15T14:03:53;5.93;;;5.13;;
7657;SDS011;8462;53.156;8.220;2024-02-15T14:06:22;5.83;;;5.33;;
7657;SDS011;8462;53.156;8.220;2024-02-15T14:08:50;6.13;;;5.33;;
7657;SDS011;8462;53.156;8.220;2024-02-15T14:11:19;6.20;;;5.50;;
7657;SDS011;8462;53.156;8.220;2024-02-15T14:13:49;6.77;;;5.80;;
7657;SDS011;8462;53.156;8.220;2024-02-15T14:16:25;5.80;;;5.30;;
7657;SDS011;8462;53.156;8.220;2024-02-15T14:18:57;6.57;;;5.87;;
7657;SDS011;8462;53.156;8.220;2024-02-15T14:21:25;10.07;;;5.57;;
7657;SDS011;8462;53.156;8.220;2024-02-15T14:23:54;7.13;;;6.43;;
7657;SDS011;8462;53.156;8.220;2024-02-15T14:26:20;10.70;;;6.93;;
7657;SDS011;8462;53.156;8.220;2024-02-15T14:28:53;7.37;;;6.67;;
7657;SDS011;8462;53.156;8.220;2024-02-15T14:31:27;6.83;;;5.93;;
7657;SDS011;8462;53.156;8.220;2024-02-15T14:34:14;7.77;;;7.00;;
7657;SDS011;8462;53.156;8.220;2024-02-15T14:36:43;6.77;;;6.07;;
7657;SDS011;8462;53.156;8.220;2024-02-15T14:39:11;7.93;;;6.37;;
7657;SDS011;8462;53.156;8.220;2024-02-15T14:41:40;6.80;;;6.20;;
7657;SDS011;8462;53.156;8.220;2024-02-15T14:44:09;6.67;;;5.97;;
7657;SDS011;8462;53.156;8.220;2024-02-15T14:46:39;7.03;;;5.90;;
7657;SDS011;8462;53.156;8.220;2024-02-15T14:49:12;6.10;;;5.60;;
7657;SDS011;8462;53.156;8.220;2024-02-15T14:51:40;9.27;;;5.77;;
7657;SDS011;8462;53.156;8.220;2024-02-15T14:54:07;6.47;;;5.83;;
7657;SDS011;8462;53.156;8.220;2024-02-15T14:56:35;6.97;;;6.07;;
7657;SDS011;8462;53.156;8.220;2024-02-15T14:59:10;7.07;;;6.00;;
7657;SDS011;8462;53.156;8.220;2024-02-15T15:01:41;6.83;;;6.23;;
7657;SDS011;8462;53.156;8.220;2024-02-15T15:04:09;7.67;;;7.07;;
7657;SDS011;8462;53.156;8.220;2024-02-15T15:06:38;7.37;;;6.73;;
7657;SDS011;8462;53.156;8.220;2024-02-15T15:09:31;9.23;;;6.90;;
7657;SDS011;8462;53.156;8.220;2024-02-15T15:12:21;7.97;;;7.17;;
7657;SDS011;8462;53.156;8.220;2024-02-15T15:15:05;7.90;;;7.20;;
7657;SDS011;8462;53.156;8.220;2024-02-15T15:17:35;9.27;;;8.37;;
7657;SDS011;8462;53.156;8.220;2024-02-15T15:20:06;7.90;;;7.10;;
7657;SDS011;8462;53.156;8.220;2024-02-15T15:22:36;8.47;;;7.77;;
7657;SDS011;8462;53.156;8.220;2024-02-15T15:25:03;9.70;;;8.70;;